sensor_id;sensor_type;location;lat;lon;timestamp;P1;durP1;ratioP1;P2;durP2;ratioP2
17175;SDS011;8703;48.996;9.594;2023-05-21T00:00:26;13.13;;;9.77;;
17175;SDS011;8703;48.996;9.594;2023-05-21T00:02:53;11.50;;;10.10;;
17175;SDS011;8703;48.996;9.594;2023-05-21T00:05:22;11.15;;;9.90;;
17175;SDS011;8703;48.996;9.594;2023-05-21T00:07:51;11.53;;;9.60;;
17175;SDS011;8703;48.996;9.594;2023-05-21T00:10:18;11.07;;;9.85;;
17175;SDS011;8703;48.996;9.594;2023-05-21T00:12:46;11.27;;;9.88;;
17175;SDS011;8703;48.996;9.594;2023-05-21T00:15:13;10.70;;;9.27;;
17175;SDS011;8703;48.996;9.594;2023-05-21T00:17:41;12.10;;;9.77;;
17175;SDS011;8703;48.996;9.594;2023-05-21T00:20:10;12.73;;;9.93;;
17175;SDS011;8703;48.996;9.594;2023-05-21T00:22:37;11.43;;;10.10;;
17175;SDS011;8703;48.996;9.594;2023-05-21T00:25:07;13.13;;;10.23;;
17175;SDS011;8703;48.996;9.594;2023-05-21T00:27:35;14.63;;;10.23;;
17175;SDS011;8703;48.996;9.594;2023-05-21T00:30:03;11.05;;;9.55;;
17175;SDS011;8703;48.996;9.594;2023-05-21T00:32:31;12.70;;;10.10;;
17175;SDS011;8703;48.996;9.594;2023-05-21T00:34:58;12.55;;;10.50;;
17175;SDS011;8703;48.996;9.594;2023-05-21T00:37:26;12.13;;;10.30;;
17175;SDS011;8703;48.996;9.594;2023-05-21T00:39:58;11.37;;;10.20;;
17175;SDS011;8703;48.996;9.594;2023-05-21T00:42:27;11.03;;;9.93;;
17175;SDS011;8703;48.996;9.594;2023-05-21T00:44:54;12.67;;;10.27;;
17175;SDS011;8703;48.996;9.594;2023-05-21T00:47:22;13.47;;;10.20;;
17175;SDS011;8703;48.996;9.594;2023-05-21T00:49:50;16.40;;;10.30;;
17175;SDS011;8703;48.996;9.594;2023-05-21T00:52:18;14.18;;;10.52;;
17175;SDS011;8703;48.996;9.594;2023-05-21T00:54:47;13.90;;;10.47;;
17175;SDS011;8703;48.996;9.594;2023-05-21T00:57:15;13.80;;;11.03;;
17175;SDS011;8703;48.996;9.594;2023-05-21T00:59:46;12.50;;;10.53;;
17175;SDS011;8703;48.996;9.594;2023-05-21T01:02:15;13.17;;;10.33;;
17175;SDS011;8703;48.996;9.594;2023-05-21T01:04:42;12.70;;;10.23;;
17175;SDS011;8703;48.996;9.594;2023-05-21T01:07:10;13.57;;;10.90;;
17175;SDS011;8703;48.996;9.594;2023-05-21T01:09:38;14.07;;;10.70;;
17175;SDS011;8703;48.996;9.594;2023-05-21T01:12:06;14.77;;;10.63;;
17175;SDS011;8703;48.996;9.594;2023-05-21T01:14:33;11.57;;;9.93;;
17175;SDS011;8703;48.996;9.594;2023-05-21T01:17:04;12.03;;;9.90;;
17175;SDS011;8703;48.996;9.594;2023-05-21T01:19:34;12.40;;;10.90;;
17175;SDS011;8703;48.996;9.594;2023-05-21T01:22:03;14.40;;;10.80;;
17175;SDS011;8703;48.996;9.594;2023-05-21T01:24:33;13.00;;;10.30;;
17175;SDS011;8703;48.996;9.594;2023-05-21T01:27:01;13.03;;;11.10;;
17175;SDS011;8703;48.996;9.594;2023-05-21T01:29:30;12.93;;;10.73;;
17175;SDS011;8703;48.996;9.594;2023-05-21T01:31:58;14.20;;;10.50;;
17175;SDS011;8703;48.996;9.594;2023-05-21T01:34:34;12.63;;;10.40;;
17175;SDS011;8703;48.996;9.594;2023-05-21T01:37:07;12.27;;;10.10;;
17175;SDS011;8703;48.996;9.594;2023-05-21T01:39:42;14.17;;;10.50;;
17175;SDS011;8703;48.996;9.594;2023-05-21T01:42:12;11.47;;;10.27;;
17175;SDS011;8703;48.996;9.594;2023-05-21T01:44:40;12.40;;;10.43;;
17175;SDS011;8703;48.996;9.594;2023-05-21T01:47:10;14.97;;;10.70;;
17175;SDS011;8703;48.996;9.594;2023-05-21T01:49:38;12.17;;;10.00;;
17175;SDS011;8703;48.996;9.594;2023-05-21T01:52:06;13.87;;;9.67;;
17175;SDS011;8703;48.996;9.594;2023-05-21T01:54:33;12.17;;;10.40;;
17175;SDS011;8703;48.996;9.594;2023-05-21T01:57:02;14.30;;;11.13;;
17175;SDS011;8703;48.996;9.594;2023-05-21T01:59:29;14.10;;;10.77;;
17175;SDS011;8703;48.996;9.594;2023-05-21T02:01:57;12.70;;;10.77;;
17175;SDS011;8703;48.996;9.594;2023-05-21T02:04:24;13.67;;;11.27;;
17175;SDS011;8703;48.996;9.594;2023-05-21T02:06:51;13.20;;;11.03;;
17175;SDS011;8703;48.996;9.594;2023-05-21T02:09:19;12.97;;;10.83;;
17175;SDS011;8703;48.996;9.594;2023-05-21T02:11:47;13.00;;;10.90;;
17175;SDS011;8703;48.996;9.594;2023-05-21T02:14:15;13.33;;;10.70;;
17175;SDS011;8703;48.996;9.594;2023-05-21T02:16:44;13.47;;;10.70;;
17175;SDS011;8703;48.996;9.594;2023-05-21T02:19:11;15.63;;;11.13;;
17175;SDS011;8703;48.996;9.594;2023-05-21T02:21:39;12.47;;;11.10;;
17175;SDS011;8703;48.996;9.594;2023-05-21T02:24:06;12.33;;;10.73;;
17175;SDS011;8703;48.996;9.594;2023-05-21T02:26:33;14.10;;;11.00;;
17175;SDS011;8703;48.996;9.594;2023-05-21T02:29:02;15.23;;;11.73;;
17175;SDS011;8703;48.996;9.594;2023-05-21T02:31:31;15.60;;;11.53;;
17175;SDS011;8703;48.996;9.594;2023-05-21T02:33:58;12.47;;;11.17;;
17175;SDS011;8703;48.996;9.594;2023-05-21T02:36:25;12.77;;;10.33;;
17175;SDS011;8703;48.996;9.594;2023-05-21T02:38:57;13.80;;;10.67;;
17175;SDS011;8703;48.996;9.594;2023-05-21T02:41:25;13.00;;;10.47;;
17175;SDS011;8703;48.996;9.594;2023-05-21T02:43:53;12.73;;;10.77;;
17175;SDS011;8703;48.996;9.594;2023-05-21T02:46:20;15.70;;;10.77;;
17175;SDS011;8703;48.996;9.594;2023-05-21T02:48:49;12.30;;;10.57;;
17175;SDS011;8703;48.996;9.594;2023-05-21T02:51:16;14.13;;;11.10;;
17175;SDS011;8703;48.996;9.594;2023-05-21T02:53:43;14.20;;;11.07;;
17175;SDS011;8703;48.996;9.594;2023-05-21T02:56:10;13.40;;;11.00;;
17175;SDS011;8703;48.996;9.594;2023-05-21T02:58:38;14.07;;;11.00;;
17175;SDS011;8703;48.996;9.594;2023-05-21T03:01:05;13.40;;;10.87;;
17175;SDS011;8703;48.996;9.594;2023-05-21T03:03:33;15.07;;;10.50;;
17175;SDS011;8703;48.996;9.594;2023-05-21T03:06:01;13.97;;;10.73;;
17175;SDS011;8703;48.996;9.594;2023-05-21T03:08:29;13.87;;;10.73;;
17175;SDS011;8703;48.996;9.594;2023-05-21T03:10:56;14.10;;;10.33;;
17175;SDS011;8703;48.996;9.594;2023-05-21T03:13:24;14.53;;;10.43;;
17175;SDS011;8703;48.996;9.594;2023-05-21T03:15:51;13.47;;;11.17;;
17175;SDS011;8703;48.996;9.594;2023-05-21T03:18:20;13.87;;;10.70;;
17175;SDS011;8703;48.996;9.594;2023-05-21T03:20:47;13.67;;;11.03;;
17175;SDS011;8703;48.996;9.594;2023-05-21T03:23:16;13.93;;;11.83;;
17175;SDS011;8703;48.996;9.594;2023-05-21T03:25:44;13.17;;;10.77;;
17175;SDS011;8703;48.996;9.594;2023-05-21T03:28:11;15.40;;;11.40;;
17175;SDS011;8703;48.996;9.594;2023-05-21T03:30:38;13.67;;;11.20;;
17175;SDS011;8703;48.996;9.594;2023-05-21T03:33:05;12.87;;;10.50;;
17175;SDS011;8703;48.996;9.594;2023-05-21T03:35:35;14.93;;;11.43;;
17175;SDS011;8703;48.996;9.594;2023-05-21T03:38:02;13.40;;;11.17;;
17175;SDS011;8703;48.996;9.594;2023-05-21T03:40:31;15.53;;;11.47;;
17175;SDS011;8703;48.996;9.594;2023-05-21T03:42:58;14.33;;;11.00;;
17175;SDS011;8703;48.996;9.594;2023-05-21T03:45:25;14.70;;;11.60;;
17175;SDS011;8703;48.996;9.594;2023-05-21T03:47:52;14.17;;;10.30;;
17175;SDS011;8703;48.996;9.594;2023-05-21T03:50:20;14.03;;;11.03;;
17175;SDS011;8703;48.996;9.594;2023-05-21T03:52:47;13.47;;;10.87;;
17175;SDS011;8703;48.996;9.594;2023-05-21T03:55:15;15.40;;;11.67;;
17175;SDS011;8703;48.996;9.594;2023-05-21T03:57:43;12.57;;;10.60;;
17175;SDS011;8703;48.996;9.594;2023-05-21T04:00:11;13.23;;;10.73;;
17175;SDS011;8703;48.996;9.594;2023-05-21T04:02:38;13.70;;;11.17;;
17175;SDS011;8703;48.996;9.594;2023-05-21T04:05:06;15.33;;;11.97;;
17175;SDS011;8703;48.996;9.594;2023-05-21T04:07:34;16.03;;;11.10;;
17175;SDS011;8703;48.996;9.594;2023-05-21T04:10:02;14.83;;;11.77;;
17175;SDS011;8703;48.996;9.594;2023-05-21T04:12:30;15.33;;;11.50;;
17175;SDS011;8703;48.996;9.594;2023-05-21T04:14:59;14.57;;;11.20;;
17175;SDS011;8703;48.996;9.594;2023-05-21T04:17:26;15.20;;;10.07;;
17175;SDS011;8703;48.996;9.594;2023-05-21T04:19:54;14.53;;;11.43;;
17175;SDS011;8703;48.996;9.594;2023-05-21T04:22:21;14.90;;;11.70;;
17175;SDS011;8703;48.996;9.594;2023-05-21T04:24:50;14.67;;;12.00;;
17175;SDS011;8703;48.996;9.594;2023-05-21T04:27:19;15.57;;;11.83;;
17175;SDS011;8703;48.996;9.594;2023-05-21T04:29:47;19.00;;;12.60;;
17175;SDS011;8703;48.996;9.594;2023-05-21T04:32:16;14.37;;;11.70;;
17175;SDS011;8703;48.996;9.594;2023-05-21T04:34:44;13.40;;;10.30;;
17175;SDS011;8703;48.996;9.594;2023-05-21T04:37:12;14.20;;;10.97;;
17175;SDS011;8703;48.996;9.594;2023-05-21T04:39:41;15.03;;;11.20;;
17175;SDS011;8703;48.996;9.594;2023-05-21T04:42:09;17.47;;;13.37;;
17175;SDS011;8703;48.996;9.594;2023-05-21T04:44:37;19.27;;;14.97;;
17175;SDS011;8703;48.996;9.594;2023-05-21T04:47:05;17.70;;;12.83;;
17175;SDS011;8703;48.996;9.594;2023-05-21T04:49:34;18.97;;;13.80;;
17175;SDS011;8703;48.996;9.594;2023-05-21T04:52:01;18.13;;;13.03;;
17175;SDS011;8703;48.996;9.594;2023-05-21T04:54:29;17.07;;;12.33;;
17175;SDS011;8703;48.996;9.594;2023-05-21T04:56:56;14.77;;;12.33;;
17175;SDS011;8703;48.996;9.594;2023-05-21T04:59:23;15.50;;;12.23;;
17175;SDS011;8703;48.996;9.594;2023-05-21T05:01:50;15.73;;;11.93;;
17175;SDS011;8703;48.996;9.594;2023-05-21T05:04:18;13.47;;;11.67;;
17175;SDS011;8703;48.996;9.594;2023-05-21T05:06:46;13.03;;;11.20;;
17175;SDS011;8703;48.996;9.594;2023-05-21T05:09:14;15.37;;;12.13;;
17175;SDS011;8703;48.996;9.594;2023-05-21T05:11:42;13.07;;;11.40;;
17175;SDS011;8703;48.996;9.594;2023-05-21T05:14:09;14.47;;;11.47;;
17175;SDS011;8703;48.996;9.594;2023-05-21T05:16:36;13.33;;;10.87;;
17175;SDS011;8703;48.996;9.594;2023-05-21T05:19:04;13.30;;;11.50;;
17175;SDS011;8703;48.996;9.594;2023-05-21T05:21:31;15.03;;;11.63;;
17175;SDS011;8703;48.996;9.594;2023-05-21T05:24:00;13.93;;;11.13;;
17175;SDS011;8703;48.996;9.594;2023-05-21T05:26:27;13.43;;;11.83;;
17175;SDS011;8703;48.996;9.594;2023-05-21T05:28:54;14.17;;;12.17;;
17175;SDS011;8703;48.996;9.594;2023-05-21T05:31:22;16.13;;;12.40;;
17175;SDS011;8703;48.996;9.594;2023-05-21T05:33:49;15.07;;;12.10;;
17175;SDS011;8703;48.996;9.594;2023-05-21T05:36:16;15.43;;;11.77;;
17175;SDS011;8703;48.996;9.594;2023-05-21T05:38:44;14.87;;;12.33;;
17175;SDS011;8703;48.996;9.594;2023-05-21T05:41:12;15.63;;;11.60;;
17175;SDS011;8703;48.996;9.594;2023-05-21T05:43:40;13.77;;;11.90;;
17175;SDS011;8703;48.996;9.594;2023-05-21T05:46:07;15.90;;;12.23;;
17175;SDS011;8703;48.996;9.594;2023-05-21T05:48:34;20.47;;;12.47;;
17175;SDS011;8703;48.996;9.594;2023-05-21T05:51:02;15.27;;;12.10;;
17175;SDS011;8703;48.996;9.594;2023-05-21T05:53:29;13.33;;;11.37;;
17175;SDS011;8703;48.996;9.594;2023-05-21T05:55:57;12.97;;;11.67;;
17175;SDS011;8703;48.996;9.594;2023-05-21T05:58:25;14.70;;;12.20;;
17175;SDS011;8703;48.996;9.594;2023-05-21T06:00:53;14.20;;;12.70;;
17175;SDS011;8703;48.996;9.594;2023-05-21T06:03:20;13.25;;;11.85;;
17175;SDS011;8703;48.996;9.594;2023-05-21T06:05:47;12.77;;;10.85;;
17175;SDS011;8703;48.996;9.594;2023-05-21T06:08:15;13.43;;;11.80;;
17175;SDS011;8703;48.996;9.594;2023-05-21T06:10:42;15.43;;;13.73;;
17175;SDS011;8703;48.996;9.594;2023-05-21T06:13:10;15.95;;;14.20;;
17175;SDS011;8703;48.996;9.594;2023-05-21T06:15:38;16.27;;;13.30;;
17175;SDS011;8703;48.996;9.594;2023-05-21T06:18:07;15.30;;;13.60;;
17175;SDS011;8703;48.996;9.594;2023-05-21T06:20:35;15.70;;;13.85;;
17175;SDS011;8703;48.996;9.594;2023-05-21T06:23:02;14.73;;;13.23;;
17175;SDS011;8703;48.996;9.594;2023-05-21T06:25:31;14.15;;;12.65;;
17175;SDS011;8703;48.996;9.594;2023-05-21T06:27:58;14.52;;;13.02;;
17175;SDS011;8703;48.996;9.594;2023-05-21T06:30:25;14.70;;;13.20;;
17175;SDS011;8703;48.996;9.594;2023-05-21T06:32:54;13.73;;;12.32;;
17175;SDS011;8703;48.996;9.594;2023-05-21T06:35:22;12.52;;;10.73;;
17175;SDS011;8703;48.996;9.594;2023-05-21T06:37:49;11.45;;;9.85;;
17175;SDS011;8703;48.996;9.594;2023-05-21T06:40:17;10.10;;;9.07;;
17175;SDS011;8703;48.996;9.594;2023-05-21T06:42:44;11.15;;;9.25;;
17175;SDS011;8703;48.996;9.594;2023-05-21T06:45:12;10.55;;;9.32;;
17175;SDS011;8703;48.996;9.594;2023-05-21T06:47:39;12.60;;;8.73;;
17175;SDS011;8703;48.996;9.594;2023-05-21T06:50:08;9.15;;;8.18;;
17175;SDS011;8703;48.996;9.594;2023-05-21T06:52:35;9.13;;;8.10;;
17175;SDS011;8703;48.996;9.594;2023-05-21T06:55:03;9.95;;;8.20;;
17175;SDS011;8703;48.996;9.594;2023-05-21T06:57:31;8.52;;;7.70;;
17175;SDS011;8703;48.996;9.594;2023-05-21T06:59:58;11.88;;;7.88;;
17175;SDS011;8703;48.996;9.594;2023-05-21T07:02:25;9.93;;;7.70;;
17175;SDS011;8703;48.996;9.594;2023-05-21T07:04:53;9.18;;;8.20;;
17175;SDS011;8703;48.996;9.594;2023-05-21T07:07:23;8.10;;;7.30;;
17175;SDS011;8703;48.996;9.594;2023-05-21T07:09:51;7.93;;;7.13;;
17175;SDS011;8703;48.996;9.594;2023-05-21T07:12:18;8.75;;;7.53;;
17175;SDS011;8703;48.996;9.594;2023-05-21T07:14:46;9.15;;;7.97;;
17175;SDS011;8703;48.996;9.594;2023-05-21T07:17:13;8.27;;;7.47;;
17175;SDS011;8703;48.996;9.594;2023-05-21T07:19:40;9.50;;;7.65;;
17175;SDS011;8703;48.996;9.594;2023-05-21T07:22:08;9.15;;;7.57;;
17175;SDS011;8703;48.996;9.594;2023-05-21T07:24:37;8.52;;;7.72;;
17175;SDS011;8703;48.996;9.594;2023-05-21T07:27:05;8.70;;;7.80;;
17175;SDS011;8703;48.996;9.594;2023-05-21T07:29:32;12.43;;;10.35;;
17175;SDS011;8703;48.996;9.594;2023-05-21T07:32:00;8.20;;;7.40;;
17175;SDS011;8703;48.996;9.594;2023-05-21T07:34:28;32.08;;;23.00;;
17175;SDS011;8703;48.996;9.594;2023-05-21T07:36:56;8.27;;;7.40;;
17175;SDS011;8703;48.996;9.594;2023-05-21T07:39:24;7.82;;;7.00;;
17175;SDS011;8703;48.996;9.594;2023-05-21T07:41:53;7.63;;;6.80;;
17175;SDS011;8703;48.996;9.594;2023-05-21T07:44:20;7.68;;;6.88;;
17175;SDS011;8703;48.996;9.594;2023-05-21T07:46:48;8.20;;;7.05;;
17175;SDS011;8703;48.996;9.594;2023-05-21T07:49:15;8.35;;;6.82;;
17175;SDS011;8703;48.996;9.594;2023-05-21T07:51:43;9.38;;;7.15;;
17175;SDS011;8703;48.996;9.594;2023-05-21T07:54:10;7.63;;;6.93;;
17175;SDS011;8703;48.996;9.594;2023-05-21T07:56:38;7.30;;;6.55;;
17175;SDS011;8703;48.996;9.594;2023-05-21T07:59:06;7.95;;;7.15;;
17175;SDS011;8703;48.996;9.594;2023-05-21T08:01:34;7.20;;;6.50;;
17175;SDS011;8703;48.996;9.594;2023-05-21T08:04:01;6.88;;;6.25;;
17175;SDS011;8703;48.996;9.594;2023-05-21T08:06:30;7.57;;;6.78;;
17175;SDS011;8703;48.996;9.594;2023-05-21T08:08:58;7.00;;;6.30;;
17175;SDS011;8703;48.996;9.594;2023-05-21T08:11:26;8.63;;;6.65;;
17175;SDS011;8703;48.996;9.594;2023-05-21T08:13:54;7.10;;;6.40;;
17175;SDS011;8703;48.996;9.594;2023-05-21T08:16:22;7.78;;;6.25;;
17175;SDS011;8703;48.996;9.594;2023-05-21T08:18:50;7.30;;;6.50;;
17175;SDS011;8703;48.996;9.594;2023-05-21T08:21:17;7.43;;;6.70;;
17175;SDS011;8703;48.996;9.594;2023-05-21T08:23:45;7.10;;;6.40;;
17175;SDS011;8703;48.996;9.594;2023-05-21T08:26:12;7.10;;;6.38;;
17175;SDS011;8703;48.996;9.594;2023-05-21T08:28:41;7.97;;;6.00;;
17175;SDS011;8703;48.996;9.594;2023-05-21T08:31:08;7.30;;;6.20;;
17175;SDS011;8703;48.996;9.594;2023-05-21T08:33:37;7.68;;;6.80;;
17175;SDS011;8703;48.996;9.594;2023-05-21T08:36:05;7.22;;;6.05;;
17175;SDS011;8703;48.996;9.594;2023-05-21T08:38:33;6.65;;;6.03;;
17175;SDS011;8703;48.996;9.594;2023-05-21T08:41:00;7.32;;;6.50;;
17175;SDS011;8703;48.996;9.594;2023-05-21T08:43:28;7.20;;;5.80;;
17175;SDS011;8703;48.996;9.594;2023-05-21T08:45:56;6.93;;;5.65;;
17175;SDS011;8703;48.996;9.594;2023-05-21T08:48:23;7.00;;;6.30;;
17175;SDS011;8703;48.996;9.594;2023-05-21T08:50:52;6.35;;;5.75;;
17175;SDS011;8703;48.996;9.594;2023-05-21T08:53:20;5.90;;;5.30;;
17175;SDS011;8703;48.996;9.594;2023-05-21T08:55:48;7.03;;;6.10;;
17175;SDS011;8703;48.996;9.594;2023-05-21T08:58:18;6.32;;;5.53;;
17175;SDS011;8703;48.996;9.594;2023-05-21T09:00:46;5.78;;;5.20;;
17175;SDS011;8703;48.996;9.594;2023-05-21T09:03:14;7.85;;;5.82;;
17175;SDS011;8703;48.996;9.594;2023-05-21T09:05:42;5.55;;;5.05;;
17175;SDS011;8703;48.996;9.594;2023-05-21T09:08:12;6.88;;;6.18;;
17175;SDS011;8703;48.996;9.594;2023-05-21T09:10:49;6.35;;;5.50;;
17175;SDS011;8703;48.996;9.594;2023-05-21T09:13:17;6.25;;;5.63;;
17175;SDS011;8703;48.996;9.594;2023-05-21T09:15:45;5.47;;;4.97;;
17175;SDS011;8703;48.996;9.594;2023-05-21T09:18:13;7.70;;;5.80;;
17175;SDS011;8703;48.996;9.594;2023-05-21T09:20:40;6.10;;;5.50;;
17175;SDS011;8703;48.996;9.594;2023-05-21T09:23:09;5.72;;;5.22;;
17175;SDS011;8703;48.996;9.594;2023-05-21T09:25:43;7.18;;;5.00;;
17175;SDS011;8703;48.996;9.594;2023-05-21T09:28:12;6.50;;;5.32;;
17175;SDS011;8703;48.996;9.594;2023-05-21T09:30:43;7.57;;;5.72;;
17175;SDS011;8703;48.996;9.594;2023-05-21T09:33:11;6.53;;;5.93;;
17175;SDS011;8703;48.996;9.594;2023-05-21T09:35:44;5.82;;;5.32;;
17175;SDS011;8703;48.996;9.594;2023-05-21T09:38:11;5.20;;;4.70;;
17175;SDS011;8703;48.996;9.594;2023-05-21T09:40:43;6.13;;;5.55;;
17175;SDS011;8703;48.996;9.594;2023-05-21T09:43:12;6.55;;;5.30;;
17175;SDS011;8703;48.996;9.594;2023-05-21T09:45:48;6.40;;;5.75;;
17175;SDS011;8703;48.996;9.594;2023-05-21T09:48:17;7.22;;;5.80;;
17175;SDS011;8703;48.996;9.594;2023-05-21T09:51:06;6.25;;;5.65;;
17175;SDS011;8703;48.996;9.594;2023-05-21T09:53:44;6.60;;;5.47;;
17175;SDS011;8703;48.996;9.594;2023-05-21T09:56:17;6.45;;;5.20;;
17175;SDS011;8703;48.996;9.594;2023-05-21T09:58:47;6.35;;;5.72;;
17175;SDS011;8703;48.996;9.594;2023-05-21T10:01:18;6.03;;;5.40;;
17175;SDS011;8703;48.996;9.594;2023-05-21T10:03:46;5.63;;;5.00;;
17175;SDS011;8703;48.996;9.594;2023-05-21T10:06:17;7.22;;;5.68;;
17175;SDS011;8703;48.996;9.594;2023-05-21T10:08:45;6.97;;;5.43;;
17175;SDS011;8703;48.996;9.594;2023-05-21T10:11:14;6.18;;;5.57;;
17175;SDS011;8703;48.996;9.594;2023-05-21T10:13:44;7.18;;;5.68;;
17175;SDS011;8703;48.996;9.594;2023-05-21T10:16:14;6.78;;;5.68;;
17175;SDS011;8703;48.996;9.594;2023-05-21T10:18:41;5.80;;;5.30;;
17175;SDS011;8703;48.996;9.594;2023-05-21T10:21:10;5.90;;;5.40;;
17175;SDS011;8703;48.996;9.594;2023-05-21T10:23:38;6.03;;;5.43;;
17175;SDS011;8703;48.996;9.594;2023-05-21T10:26:05;5.82;;;5.25;;
17175;SDS011;8703;48.996;9.594;2023-05-21T10:28:34;7.25;;;5.20;;
17175;SDS011;8703;48.996;9.594;2023-05-21T10:31:02;6.00;;;5.40;;
17175;SDS011;8703;48.996;9.594;2023-05-21T10:33:29;6.45;;;5.75;;
17175;SDS011;8703;48.996;9.594;2023-05-21T10:35:58;6.70;;;5.90;;
17175;SDS011;8703;48.996;9.594;2023-05-21T10:38:26;6.18;;;5.32;;
17175;SDS011;8703;48.996;9.594;2023-05-21T10:40:53;8.82;;;5.50;;
17175;SDS011;8703;48.996;9.594;2023-05-21T10:43:30;7.95;;;5.45;;
17175;SDS011;8703;48.996;9.594;2023-05-21T10:46:13;7.32;;;5.72;;
17175;SDS011;8703;48.996;9.594;2023-05-21T10:51:53;6.05;;;5.45;;
17175;SDS011;8703;48.996;9.594;2023-05-21T10:54:46;5.78;;;5.22;;
17175;SDS011;8703;48.996;9.594;2023-05-21T10:57:31;5.57;;;5.07;;
17175;SDS011;8703;48.996;9.594;2023-05-21T11:00:07;5.63;;;5.03;;
17175;SDS011;8703;48.996;9.594;2023-05-21T11:02:36;5.57;;;5.07;;
17175;SDS011;8703;48.996;9.594;2023-05-21T11:05:03;6.40;;;4.97;;
17175;SDS011;8703;48.996;9.594;2023-05-21T11:07:50;5.80;;;5.30;;
17175;SDS011;8703;48.996;9.594;2023-05-21T11:10:29;6.40;;;5.60;;
17175;SDS011;8703;48.996;9.594;2023-05-21T11:13:04;6.30;;;5.20;;
17175;SDS011;8703;48.996;9.594;2023-05-21T11:21:22;5.97;;;5.35;;
17175;SDS011;8703;48.996;9.594;2023-05-21T11:23:52;6.15;;;5.55;;
17175;SDS011;8703;48.996;9.594;2023-05-21T11:26:20;5.72;;;5.22;;
17175;SDS011;8703;48.996;9.594;2023-05-21T11:28:49;5.93;;;5.20;;
17175;SDS011;8703;48.996;9.594;2023-05-21T11:31:25;6.22;;;5.63;;
17175;SDS011;8703;48.996;9.594;2023-05-21T11:34:07;6.43;;;5.80;;
17175;SDS011;8703;48.996;9.594;2023-05-21T11:36:37;6.13;;;5.50;;
17175;SDS011;8703;48.996;9.594;2023-05-21T11:39:08;6.03;;;5.40;;
17175;SDS011;8703;48.996;9.594;2023-05-21T11:41:48;7.32;;;6.63;;
17175;SDS011;8703;48.996;9.594;2023-05-21T11:44:16;6.68;;;6.18;;
17175;SDS011;8703;48.996;9.594;2023-05-21T11:46:45;6.07;;;5.47;;
17175;SDS011;8703;48.996;9.594;2023-05-21T11:49:14;6.32;;;5.80;;
17175;SDS011;8703;48.996;9.594;2023-05-21T11:51:41;7.25;;;6.65;;
17175;SDS011;8703;48.996;9.594;2023-05-21T11:54:09;6.78;;;6.18;;
17175;SDS011;8703;48.996;9.594;2023-05-21T11:56:36;7.15;;;6.18;;
17175;SDS011;8703;48.996;9.594;2023-05-21T11:59:11;7.47;;;6.65;;
17175;SDS011;8703;48.996;9.594;2023-05-21T12:01:40;7.20;;;6.65;;
17175;SDS011;8703;48.996;9.594;2023-05-21T12:04:09;6.95;;;6.25;;
17175;SDS011;8703;48.996;9.594;2023-05-21T12:06:37;8.27;;;7.68;;
17175;SDS011;8703;48.996;9.594;2023-05-21T12:09:06;7.90;;;7.20;;
17175;SDS011;8703;48.996;9.594;2023-05-21T12:11:34;10.70;;;9.88;;
17175;SDS011;8703;48.996;9.594;2023-05-21T12:14:05;10.05;;;9.13;;
17175;SDS011;8703;48.996;9.594;2023-05-21T12:16:33;9.32;;;8.57;;
17175;SDS011;8703;48.996;9.594;2023-05-21T12:19:01;16.60;;;15.55;;
17175;SDS011;8703;48.996;9.594;2023-05-21T12:21:29;13.88;;;12.93;;
17175;SDS011;8703;48.996;9.594;2023-05-21T12:23:57;13.32;;;12.43;;
17175;SDS011;8703;48.996;9.594;2023-05-21T12:26:24;13.60;;;12.60;;
17175;SDS011;8703;48.996;9.594;2023-05-21T12:28:52;18.50;;;17.40;;
17175;SDS011;8703;48.996;9.594;2023-05-21T12:31:20;20.63;;;19.27;;
17175;SDS011;8703;48.996;9.594;2023-05-21T12:33:48;18.70;;;17.55;;
17175;SDS011;8703;48.996;9.594;2023-05-21T12:36:24;18.70;;;17.42;;
17175;SDS011;8703;48.996;9.594;2023-05-21T12:38:54;13.60;;;12.65;;
17175;SDS011;8703;48.996;9.594;2023-05-21T12:41:22;13.57;;;12.50;;
17175;SDS011;8703;48.996;9.594;2023-05-21T12:43:50;18.80;;;17.67;;
17175;SDS011;8703;48.996;9.594;2023-05-21T12:46:17;15.60;;;14.63;;
17175;SDS011;8703;48.996;9.594;2023-05-21T12:48:47;9.52;;;8.82;;
17175;SDS011;8703;48.996;9.594;2023-05-21T12:51:15;13.75;;;12.85;;
17175;SDS011;8703;48.996;9.594;2023-05-21T12:53:42;18.20;;;17.05;;
17175;SDS011;8703;48.996;9.594;2023-05-21T12:56:12;18.55;;;17.30;;
17175;SDS011;8703;48.996;9.594;2023-05-21T12:58:41;16.27;;;15.18;;
17175;SDS011;8703;48.996;9.594;2023-05-21T13:01:08;18.10;;;16.95;;
17175;SDS011;8703;48.996;9.594;2023-05-21T13:03:36;18.60;;;17.45;;
17175;SDS011;8703;48.996;9.594;2023-05-21T13:06:04;19.88;;;18.67;;
17175;SDS011;8703;48.996;9.594;2023-05-21T13:08:32;18.23;;;16.92;;
17175;SDS011;8703;48.996;9.594;2023-05-21T13:11:00;14.13;;;13.13;;
17175;SDS011;8703;48.996;9.594;2023-05-21T13:13:29;15.45;;;14.25;;
17175;SDS011;8703;48.996;9.594;2023-05-21T13:15:56;13.57;;;12.68;;
17175;SDS011;8703;48.996;9.594;2023-05-21T13:18:24;12.55;;;11.60;;
17175;SDS011;8703;48.996;9.594;2023-05-21T13:20:51;9.68;;;8.93;;
17175;SDS011;8703;48.996;9.594;2023-05-21T13:23:19;11.20;;;10.40;;
17175;SDS011;8703;48.996;9.594;2023-05-21T13:25:46;10.98;;;10.18;;
17175;SDS011;8703;48.996;9.594;2023-05-21T13:28:13;10.30;;;9.50;;
17175;SDS011;8703;48.996;9.594;2023-05-21T13:30:42;12.05;;;11.10;;
17175;SDS011;8703;48.996;9.594;2023-05-21T13:33:09;12.68;;;11.80;;
17175;SDS011;8703;48.996;9.594;2023-05-21T13:35:37;17.17;;;16.08;;
17175;SDS011;8703;48.996;9.594;2023-05-21T13:38:04;12.32;;;11.43;;
17175;SDS011;8703;48.996;9.594;2023-05-21T13:40:32;15.68;;;14.60;;
17175;SDS011;8703;48.996;9.594;2023-05-21T13:42:59;15.77;;;14.57;;
17175;SDS011;8703;48.996;9.594;2023-05-21T13:45:26;15.98;;;14.93;;
17175;SDS011;8703;48.996;9.594;2023-05-21T13:47:55;17.38;;;16.20;;
17175;SDS011;8703;48.996;9.594;2023-05-21T13:50:23;14.85;;;13.75;;
17175;SDS011;8703;48.996;9.594;2023-05-21T13:52:50;15.75;;;14.73;;
17175;SDS011;8703;48.996;9.594;2023-05-21T13:55:18;15.32;;;14.25;;
17175;SDS011;8703;48.996;9.594;2023-05-21T13:57:45;16.33;;;15.32;;
17175;SDS011;8703;48.996;9.594;2023-05-21T14:00:13;12.32;;;11.32;;
17175;SDS011;8703;48.996;9.594;2023-05-21T14:02:40;14.48;;;13.27;;
17175;SDS011;8703;48.996;9.594;2023-05-21T14:05:10;16.70;;;15.50;;
17175;SDS011;8703;48.996;9.594;2023-05-21T14:07:37;10.88;;;9.98;;
17175;SDS011;8703;48.996;9.594;2023-05-21T14:10:06;10.48;;;9.73;;
17175;SDS011;8703;48.996;9.594;2023-05-21T14:12:33;15.20;;;14.10;;
17175;SDS011;8703;48.996;9.594;2023-05-21T14:15:02;9.70;;;8.93;;
17175;SDS011;8703;48.996;9.594;2023-05-21T14:17:30;10.70;;;9.90;;
17175;SDS011;8703;48.996;9.594;2023-05-21T14:19:58;9.68;;;8.90;;
17175;SDS011;8703;48.996;9.594;2023-05-21T14:22:26;10.20;;;9.30;;
17175;SDS011;8703;48.996;9.594;2023-05-21T14:24:54;12.30;;;11.35;;
17175;SDS011;8703;48.996;9.594;2023-05-21T14:27:21;9.77;;;9.00;;
17175;SDS011;8703;48.996;9.594;2023-05-21T14:29:48;10.23;;;9.32;;
17175;SDS011;8703;48.996;9.594;2023-05-21T14:32:15;11.70;;;8.85;;
17175;SDS011;8703;48.996;9.594;2023-05-21T14:34:43;11.15;;;10.32;;
17175;SDS011;8703;48.996;9.594;2023-05-21T14:37:10;11.82;;;10.73;;
17175;SDS011;8703;48.996;9.594;2023-05-21T14:39:39;10.93;;;10.13;;
17175;SDS011;8703;48.996;9.594;2023-05-21T14:42:06;11.52;;;10.73;;
17175;SDS011;8703;48.996;9.594;2023-05-21T14:44:33;11.68;;;10.88;;
17175;SDS011;8703;48.996;9.594;2023-05-21T14:47:01;10.55;;;9.75;;
17175;SDS011;8703;48.996;9.594;2023-05-21T14:49:28;10.73;;;9.82;;
17175;SDS011;8703;48.996;9.594;2023-05-21T14:51:56;13.85;;;12.88;;
17175;SDS011;8703;48.996;9.594;2023-05-21T14:54:23;15.80;;;14.63;;
17175;SDS011;8703;48.996;9.594;2023-05-21T14:56:52;12.55;;;11.63;;
17175;SDS011;8703;48.996;9.594;2023-05-21T14:59:19;18.25;;;16.98;;
17175;SDS011;8703;48.996;9.594;2023-05-21T15:01:46;12.45;;;11.52;;